createdAt,value
2018-11-25T00:00:58.690Z,101172.36
2018-11-25T00:03:27.192Z,101178.25
2018-11-25T00:05:55.637Z,101170.16
2018-11-25T00:08:24.105Z,101169.31
2018-11-25T00:10:52.543Z,101173.36
2018-11-25T00:13:21.044Z,101178.38
2018-11-25T00:15:49.502Z,101177.53
2018-11-25T00:18:18.192Z,101168.09
2018-11-25T00:20:46.487Z,101170.28
2018-11-25T00:23:14.966Z,101160.86
2018-11-25T00:25:43.423Z,101164.39
2018-11-25T00:28:11.884Z,101160.73
2018-11-25T00:30:40.321Z,101157.66
2018-11-25T00:33:08.790Z,101154.84
2018-11-25T00:35:37.240Z,101155.34
2018-11-25T00:38:05.950Z,101157.38
2018-11-25T00:40:34.388Z,101159.73
2018-11-25T00:43:02.859Z,101157.03
2018-11-25T00:45:31.325Z,101152.98
2018-11-25T00:47:59.772Z,101153.33
2018-11-25T00:50:28.242Z,101153.20
2018-11-25T00:52:56.666Z,101151.36
2018-11-25T00:55:25.131Z,101152.05
2018-11-25T00:57:53.565Z,101152.42
2018-11-25T01:00:22.027Z,101152.27
2018-11-25T01:02:50.901Z,101151.27
2018-11-25T01:05:19.416Z,101146.88
2018-11-25T01:07:47.854Z,101148.09
2018-11-25T01:10:17.003Z,101146.09
2018-11-25T01:12:45.849Z,101146.09
2018-11-25T01:15:15.287Z,101152.33
2018-11-25T01:17:43.871Z,101149.98
2018-11-25T01:20:14.532Z,101154.91
2018-11-25T01:22:42.993Z,101151.05
2018-11-25T01:25:11.880Z,101149.34
2018-11-25T01:27:40.345Z,101146.66
2018-11-25T01:30:12.837Z,101146.66
2018-11-25T01:32:41.324Z,101148.72
2018-11-25T01:35:10.767Z,101150.54
2018-11-25T01:37:39.277Z,101149.56
2018-11-25T01:40:12.950Z,101150.20
2018-11-25T01:42:41.426Z,101148.34
2018-11-25T01:45:11.293Z,101149.19
2018-11-25T01:47:39.832Z,101149.85
2018-11-25T01:50:10.188Z,101150.35
2018-11-25T01:52:38.774Z,101143.02
2018-11-25T01:55:09.807Z,101148.22
2018-11-25T01:57:38.253Z,101144.17
2018-11-25T02:00:13.703Z,101141.61
2018-11-25T02:02:42.195Z,101140.41
2018-11-25T02:05:10.697Z,101140.92
2018-11-25T02:07:39.141Z,101138.73
2018-11-25T02:10:15.879Z,101133.33
2018-11-25T02:12:44.348Z,101135.02
2018-11-25T02:15:13.867Z,101132.83
2018-11-25T02:17:42.349Z,101130.14
2018-11-25T02:20:13.906Z,101127.94
2018-11-25T02:22:42.352Z,101129.29
2018-11-25T02:25:10.885Z,101126.59
2018-11-25T02:27:39.331Z,101121.89
2018-11-25T02:30:10.113Z,101120.04
2018-11-25T02:32:38.563Z,101116.84
2018-11-25T02:35:08.823Z,101121.27
2018-11-25T02:37:37.306Z,101114.02
2018-11-25T02:40:07.974Z,101108.63
2018-11-25T02:42:36.419Z,101110.32
2018-11-25T02:45:05.531Z,101101.89
2018-11-25T02:47:33.970Z,101099.19
2018-11-25T02:50:02.462Z,101093.80
2018-11-25T02:52:30.915Z,101097.00
2018-11-25T02:54:59.376Z,101095.49
2018-11-25T02:57:27.819Z,101098.41
2018-11-25T02:59:56.287Z,101097.05
2018-11-25T03:02:24.744Z,101086.77
2018-11-25T03:04:53.289Z,101091.32
2018-11-25T03:07:21.831Z,101088.13
2018-11-25T03:09:50.303Z,101092.51
2018-11-25T03:12:18.768Z,101091.66
2018-11-25T03:14:47.231Z,101092.00
2018-11-25T03:17:15.676Z,101094.70
2018-11-25T03:19:44.168Z,101096.05
2018-11-25T03:22:12.619Z,101099.25
2018-11-25T03:24:41.079Z,101104.48
2018-11-25T03:27:09.556Z,101099.97
2018-11-25T03:29:38.004Z,101105.70
2018-11-25T03:32:06.601Z,101107.05
2018-11-25T03:34:35.050Z,101099.47
2018-11-25T03:37:03.525Z,101102.16
2018-11-25T03:39:31.955Z,101104.36
2018-11-25T03:42:00.507Z,101107.05
2018-11-25T03:44:28.962Z,101102.00
2018-11-25T03:46:57.428Z,101106.89
2018-11-25T03:49:25.880Z,101107.27
2018-11-25T03:51:54.373Z,101105.25
2018-11-25T03:54:22.810Z,101103.91
2018-11-25T03:56:51.274Z,101110.65
2018-11-25T03:59:19.731Z,101109.80
2018-11-25T04:01:48.194Z,101105.41
2018-11-25T04:04:16.642Z,101111.66
2018-11-25T04:06:45.119Z,101109.80
2018-11-25T04:09:13.579Z,101109.45
2018-11-25T04:11:42.083Z,101099.02
2018-11-25T04:14:10.526Z,101102.56
2018-11-25T04:16:39.039Z,101102.22
2018-11-25T04:19:07.515Z,101098.67
2018-11-25T04:21:35.993Z,101098.17
2018-11-25T04:24:04.468Z,101098.17
2018-11-25T04:26:32.930Z,101101.21
2018-11-25T04:29:01.376Z,101100.87
2018-11-25T04:31:29.836Z,101094.13
2018-11-25T04:33:58.281Z,101100.37
2018-11-25T04:36:26.753Z,101095.82
2018-11-25T04:38:55.309Z,101095.31
2018-11-25T04:41:23.775Z,101096.66
2018-11-25T04:43:52.232Z,101095.19
2018-11-25T04:46:20.695Z,101094.34
2018-11-25T04:48:49.154Z,101097.03
2018-11-25T04:51:17.610Z,101099.58
2018-11-25T04:53:46.051Z,101094.19
2018-11-25T04:56:14.525Z,101098.23
2018-11-25T04:58:42.970Z,101094.69
2018-11-25T05:01:11.435Z,101100.92
2018-11-25T05:03:39.863Z,101094.19
2018-11-25T05:06:08.330Z,101099.41
2018-11-25T05:08:36.781Z,101091.20
2018-11-25T05:11:05.274Z,101089.84
2018-11-25T05:13:33.735Z,101094.58
2018-11-25T05:16:02.171Z,101090.53
2018-11-25T05:18:30.623Z,101094.58
2018-11-25T05:20:59.076Z,101087.33
2018-11-25T05:23:27.531Z,101087.33
2018-11-25T05:25:55.988Z,101090.91
2018-11-25T05:28:24.454Z,101090.53
2018-11-25T05:30:52.886Z,101086.86
2018-11-25T05:33:21.346Z,101088.68
2018-11-25T05:35:49.793Z,101084.64
2018-11-25T05:38:18.243Z,101087.20
2018-11-25T05:40:46.679Z,101085.85
2018-11-25T05:43:15.144Z,101088.05
2018-11-25T05:45:43.579Z,101087.55
2018-11-25T05:48:12.037Z,101087.20
2018-11-25T05:50:40.491Z,101086.70
2018-11-25T05:53:08.955Z,101082.66
2018-11-25T05:55:37.382Z,101079.45
2018-11-25T05:58:06.076Z,101081.14
2018-11-25T06:00:34.598Z,101086.70
2018-11-25T06:03:03.066Z,101081.30
2018-11-25T06:05:31.503Z,101087.20
2018-11-25T06:07:59.966Z,101085.69
2018-11-25T06:10:28.403Z,101093.28
2018-11-25T06:12:56.865Z,101090.59
2018-11-25T06:15:25.311Z,101089.23
2018-11-25T06:17:53.783Z,101090.59
2018-11-25T06:20:22.235Z,101095.51
2018-11-25T06:22:50.699Z,101088.39
2018-11-25T06:25:20.399Z,101094.16
2018-11-25T06:27:48.885Z,101097.83
2018-11-25T06:30:18.435Z,101093.66
2018-11-25T06:32:46.906Z,101103.78
2018-11-25T06:35:17.169Z,101094.84
2018-11-25T06:37:45.675Z,101103.78
2018-11-25T06:40:19.085Z,101102.09
2018-11-25T06:42:47.610Z,101107.48
2018-11-25T06:45:21.492Z,101104.95
2018-11-25T06:47:49.955Z,101115.58
2018-11-25T06:50:18.434Z,101115.07
2018-11-25T06:52:46.904Z,101115.58
2018-11-25T06:55:15.352Z,101115.58
2018-11-25T06:57:43.839Z,101128.05
2018-11-25T07:00:20.985Z,101127.55
2018-11-25T07:02:49.478Z,101126.58
2018-11-25T07:05:17.969Z,101126.92
2018-11-25T07:07:46.443Z,101127.77
2018-11-25T07:10:16.935Z,101132.16
2018-11-25T07:12:45.464Z,101136.58
2018-11-25T07:15:15.064Z,101139.11
2018-11-25T07:17:43.548Z,101138.11
2018-11-25T07:20:13.134Z,101138.11
2018-11-25T07:22:41.606Z,101131.23
2018-11-25T07:25:13.367Z,101134.27
2018-11-25T07:27:41.857Z,101138.53
2018-11-25T07:30:13.764Z,101136.69
2018-11-25T07:32:42.243Z,101139.72
2018-11-25T07:35:10.696Z,101142.13
2018-11-25T07:37:39.167Z,101145.17
2018-11-25T07:40:11.978Z,101149.22
2018-11-25T07:42:40.438Z,101144.20
2018-11-25T07:45:10.394Z,101149.77
2018-11-25T07:47:38.851Z,101144.88
2018-11-25T07:50:08.868Z,101148.80
2018-11-25T07:52:37.456Z,101145.94
2018-11-25T07:55:09.620Z,101138.19
2018-11-25T07:57:38.078Z,101142.61
2018-11-25T08:00:10.388Z,101145.98
2018-11-25T08:02:41.628Z,101144.85
2018-11-25T08:05:08.944Z,101146.04
2018-11-25T08:07:37.499Z,101145.53
2018-11-25T08:10:08.788Z,101147.73
2018-11-25T08:12:37.223Z,101148.11
2018-11-25T08:15:07.330Z,101148.11
2018-11-25T08:17:35.784Z,101151.98
2018-11-25T08:20:04.656Z,101151.98
2018-11-25T08:22:33.110Z,101154.19
2018-11-25T08:25:01.594Z,101155.75
2018-11-25T08:27:30.029Z,101153.77
2018-11-25T08:29:58.517Z,101153.77
2018-11-25T08:32:26.952Z,101149.89
2018-11-25T08:34:55.428Z,101151.75
2018-11-25T08:37:23.874Z,101151.24
2018-11-25T08:39:52.331Z,101155.67
2018-11-25T08:42:20.779Z,101164.11
2018-11-25T08:44:49.251Z,101158.36
2018-11-25T08:47:17.707Z,101159.60
2018-11-25T08:49:46.192Z,101159.39
2018-11-25T08:52:14.634Z,101159.26
2018-11-25T08:54:43.100Z,101156.77
2018-11-25T08:57:11.549Z,101166.91
2018-11-25T08:59:40.012Z,101160.02
2018-11-25T09:02:08.463Z,101159.86
2018-11-25T09:04:36.956Z,101165.77
2018-11-25T09:07:05.479Z,101164.91
2018-11-25T09:09:33.927Z,101165.42
2018-11-25T09:12:02.375Z,101170.82
2018-11-25T09:14:30.869Z,101179.39
2018-11-25T09:16:59.322Z,101180.73
2018-11-25T09:19:27.813Z,101177.70
2018-11-25T09:21:56.247Z,101183.60
2018-11-25T09:24:24.730Z,101180.06
2018-11-25T09:26:53.168Z,101175.84
2018-11-25T09:29:21.636Z,101185.16
2018-11-25T09:31:50.078Z,101178.09
2018-11-25T09:34:18.542Z,101177.45
2018-11-25T09:36:47.036Z,101178.17
2018-11-25T09:39:16.335Z,101182.35
2018-11-25T09:41:44.771Z,101182.69
2018-11-25T09:44:13.257Z,101178.17
2018-11-25T09:46:42.688Z,101182.22
2018-11-25T09:49:10.186Z,101181.55
2018-11-25T09:51:38.651Z,101179.70
2018-11-25T09:54:07.115Z,101180.75
2018-11-25T09:56:35.583Z,101180.41
2018-11-25T09:59:04.056Z,101179.27
2018-11-25T10:01:32.519Z,101179.45
2018-11-25T10:04:00.956Z,101173.96
2018-11-25T10:06:29.437Z,101181.95
2018-11-25T10:08:57.898Z,101179.16
2018-11-25T10:11:26.389Z,101183.45
2018-11-25T10:13:54.831Z,101187.00
2018-11-25T10:16:23.284Z,101184.00
2018-11-25T10:18:51.732Z,101186.70
2018-11-25T10:21:20.194Z,101186.70
2018-11-25T10:23:48.641Z,101177.59
2018-11-25T10:26:17.146Z,101177.89
2018-11-25T10:28:45.599Z,101179.74
2018-11-25T10:31:14.070Z,101176.23
2018-11-25T10:33:42.516Z,101177.93
2018-11-25T10:36:10.989Z,101171.13
2018-11-25T10:38:39.424Z,101173.03
2018-11-25T10:41:07.889Z,101168.17
2018-11-25T10:43:36.327Z,101159.56
2018-11-25T10:46:04.827Z,101161.45
2018-11-25T10:48:33.271Z,101151.91
2018-11-25T10:51:01.740Z,101156.03
2018-11-25T10:53:30.197Z,101148.33
2018-11-25T10:55:58.665Z,101147.25
2018-11-25T10:58:27.150Z,101142.61
2018-11-25T11:00:59.776Z,101141.48
2018-11-25T11:03:33.504Z,101141.03
2018-11-25T11:06:07.069Z,101144.45
2018-11-25T11:08:35.544Z,101145.17
2018-11-25T11:11:04.019Z,101143.34
2018-11-25T11:13:32.483Z,101147.91
2018-11-25T11:16:00.944Z,101150.59
2018-11-25T11:18:29.388Z,101146.47
2018-11-25T11:20:57.839Z,101145.83
2018-11-25T11:23:26.284Z,101141.57
2018-11-25T11:25:54.775Z,101131.84
2018-11-25T11:28:23.211Z,101138.13
2018-11-25T11:30:51.660Z,101138.27
2018-11-25T11:33:20.114Z,101143.17
2018-11-25T11:35:48.592Z,101141.97
2018-11-25T11:38:17.038Z,101139.42
2018-11-25T11:40:45.514Z,101136.72
2018-11-25T11:43:13.936Z,101137.94
2018-11-25T11:45:42.434Z,101137.45
2018-11-25T11:48:10.887Z,101131.70
2018-11-25T11:50:39.396Z,101130.57
2018-11-25T11:53:07.922Z,101129.64
2018-11-25T11:55:36.439Z,101127.14
2018-11-25T11:58:04.984Z,101131.39
2018-11-25T12:00:33.422Z,101131.20
2018-11-25T12:03:01.895Z,101129.67
2018-11-25T12:05:30.340Z,101137.73
2018-11-25T12:07:58.817Z,101139.80
2018-11-25T12:10:27.298Z,101131.02
2018-11-25T12:12:55.761Z,101132.88
2018-11-25T12:15:30.878Z,101130.04
2018-11-25T12:17:55.058Z,101127.36
2018-11-25T12:20:24.232Z,101122.45
2018-11-25T12:22:53.779Z,101123.12
2018-11-25T12:25:22.271Z,101121.27
2018-11-25T12:27:50.744Z,101130.42
2018-11-25T12:30:19.196Z,101129.59
2018-11-25T12:32:49.009Z,101127.91
2018-11-25T12:35:17.934Z,101118.69
2018-11-25T12:37:46.438Z,101121.91
2018-11-25T12:40:16.018Z,101119.89
2018-11-25T12:42:46.075Z,101120.94
2018-11-25T12:45:15.677Z,101126.56
2018-11-25T12:47:44.146Z,101117.59
2018-11-25T12:50:23.551Z,101127.39
2018-11-25T12:52:52.059Z,101126.00
2018-11-25T12:55:23.210Z,101126.13
2018-11-25T12:57:52.010Z,101124.30
2018-11-25T13:00:25.195Z,101121.94
2018-11-25T13:02:53.686Z,101115.83
2018-11-25T13:05:22.155Z,101122.45
2018-11-25T13:07:50.723Z,101121.96
2018-11-25T13:10:19.251Z,101126.03
2018-11-25T13:12:47.728Z,101129.77
2018-11-25T13:15:16.174Z,101125.67
2018-11-25T13:17:44.650Z,101134.63
2018-11-25T13:20:14.898Z,101136.64
2018-11-25T13:22:43.375Z,101134.95
2018-11-25T13:25:12.955Z,101129.70
2018-11-25T13:27:41.429Z,101134.44
2018-11-25T13:30:20.292Z,101139.50
2018-11-25T13:32:49.023Z,101138.31
2018-11-25T13:35:17.534Z,101137.14
2018-11-25T13:37:46.036Z,101135.80
2018-11-25T13:40:16.353Z,101150.17
2018-11-25T13:42:44.852Z,101149.99
2018-11-25T13:45:13.307Z,101150.12
2018-11-25T13:47:41.822Z,101147.42
2018-11-25T13:50:11.392Z,101151.48
2018-11-25T13:52:39.913Z,101151.81
2018-11-25T13:55:10.722Z,101148.78
2018-11-25T13:57:39.195Z,101150.12
2018-11-25T14:00:18.176Z,101147.59
2018-11-25T14:02:46.642Z,101152.50
2018-11-25T14:05:15.099Z,101152.33
2018-11-25T14:07:43.579Z,101158.25
2018-11-25T14:10:17.439Z,101150.83
2018-11-25T14:12:45.894Z,101154.19
2018-11-25T14:15:14.344Z,101161.47
2018-11-25T14:17:42.807Z,101159.77
2018-11-25T14:20:11.337Z,101158.94
2018-11-25T14:22:39.802Z,101159.25
2018-11-25T14:25:10.940Z,101159.89
2018-11-25T14:27:39.456Z,101169.34
2018-11-25T14:30:13.387Z,101165.56
2018-11-25T14:32:40.555Z,101165.88
2018-11-25T14:35:10.878Z,101167.94
2018-11-25T14:37:39.400Z,101170.31
2018-11-25T14:40:10.228Z,101167.23
2018-11-25T14:42:38.958Z,101167.23
2018-11-25T14:45:09.897Z,101168.08
2018-11-25T14:47:38.385Z,101160.47
2018-11-25T14:50:15.870Z,101162.84
2018-11-25T14:52:45.552Z,101156.39
2018-11-25T14:55:14.737Z,101154.70
2018-11-25T14:57:43.211Z,101151.80
2018-11-25T15:00:16.018Z,101149.91
2018-11-25T15:02:45.477Z,101150.39
2018-11-25T15:05:17.596Z,101144.11
2018-11-25T15:07:46.081Z,101139.83
2018-11-25T15:10:15.212Z,101135.65
2018-11-25T15:12:43.711Z,101145.22
2018-11-25T15:15:13.635Z,101138.80
2018-11-25T15:17:43.211Z,101142.88
2018-11-25T15:20:12.819Z,101148.34
2018-11-25T15:22:42.673Z,101147.50
2018-11-25T15:25:13.630Z,101152.10
2018-11-25T15:27:42.144Z,101151.17
2018-11-25T15:30:11.645Z,101149.65
2018-11-25T15:32:40.086Z,101152.76
2018-11-25T15:35:10.827Z,101154.19
2018-11-25T15:37:40.732Z,101150.88
2018-11-25T15:40:14.058Z,101157.02
2018-11-25T15:42:42.491Z,101158.82
2018-11-25T15:45:11.473Z,101157.42
2018-11-25T15:47:41.378Z,101152.87
2018-11-25T15:50:11.644Z,101158.27
2018-11-25T15:52:40.111Z,101154.16
2018-11-25T15:55:12.235Z,101161.48
2018-11-25T15:57:40.721Z,101154.34
2018-11-25T16:00:12.564Z,101158.80
2018-11-25T16:02:41.018Z,101151.81
2018-11-25T16:05:11.295Z,101156.77
2018-11-25T16:07:39.799Z,101158.56
2018-11-25T16:10:11.621Z,101167.09
2018-11-25T16:12:40.698Z,101163.84
2018-11-25T16:15:10.866Z,101160.13
2018-11-25T16:17:39.319Z,101164.77
2018-11-25T16:20:10.017Z,101158.03
2018-11-25T16:22:38.543Z,101164.39
2018-11-25T16:25:44.989Z,101165.90
2018-11-25T16:28:15.290Z,101175.11
2018-11-25T16:30:43.783Z,101178.81
2018-11-25T16:33:12.209Z,101175.39
2018-11-25T16:35:40.685Z,101179.86
2018-11-25T16:38:09.158Z,101177.19
2018-11-25T16:40:37.665Z,101183.83
2018-11-25T16:43:06.399Z,101182.06
2018-11-25T16:45:34.873Z,101179.14
2018-11-25T16:48:03.446Z,101185.61
2018-11-25T16:50:31.979Z,101182.05
2018-11-25T16:53:00.452Z,101190.32
2018-11-25T16:55:28.915Z,101190.44
2018-11-25T16:57:57.360Z,101191.21
2018-11-25T17:00:25.831Z,101193.06
2018-11-25T17:02:54.292Z,101193.48
2018-11-25T17:05:25.588Z,101190.48
2018-11-25T17:08:02.856Z,101190.55
2018-11-25T17:10:31.318Z,101195.70
2018-11-25T17:12:59.772Z,101190.02
2018-11-25T17:15:28.998Z,101196.52
2018-11-25T17:17:57.433Z,101194.23
2018-11-25T17:20:25.898Z,101189.77
2018-11-25T17:22:54.357Z,101190.03
2018-11-25T17:25:22.991Z,101190.56
2018-11-25T17:27:51.411Z,101196.02
2018-11-25T17:30:20.702Z,101196.39
2018-11-25T17:32:49.478Z,101198.38
2018-11-25T17:35:22.300Z,101204.52
2018-11-25T17:37:50.753Z,101204.20
2018-11-25T17:40:19.212Z,101209.98
2018-11-25T17:42:48.022Z,101204.02
2018-11-25T17:45:16.460Z,101213.83
2018-11-25T17:47:44.986Z,101209.80
2018-11-25T17:50:17.812Z,101214.30
2018-11-25T17:52:46.576Z,101214.45
2018-11-25T17:55:15.405Z,101214.50
2018-11-25T17:57:44.048Z,101225.51
2018-11-25T18:00:14.387Z,101223.58
2018-11-25T18:02:42.839Z,101224.33
2018-11-25T18:05:11.323Z,101221.30
2018-11-25T18:07:39.795Z,101226.85
2018-11-25T18:10:10.420Z,101221.97
2018-11-25T18:12:38.890Z,101226.55
2018-11-25T18:15:15.749Z,101229.76
2018-11-25T18:17:48.840Z,101242.72
2018-11-25T18:20:17.278Z,101239.30
2018-11-25T18:22:47.654Z,101245.30
2018-11-25T18:25:16.127Z,101239.92
2018-11-25T18:27:44.616Z,101243.92
2018-11-25T18:30:14.569Z,101235.48
2018-11-25T18:32:43.814Z,101235.84
2018-11-25T18:35:12.288Z,101241.06
2018-11-25T18:37:40.762Z,101243.01
2018-11-25T18:40:10.931Z,101241.66
2018-11-25T18:42:39.502Z,101241.27
2018-11-25T18:45:11.115Z,101246.85
2018-11-25T18:47:39.736Z,101253.06
2018-11-25T18:50:10.855Z,101243.86
2018-11-25T18:52:39.324Z,101251.28
2018-11-25T18:55:06.612Z,101254.66
2018-11-25T18:57:35.099Z,101250.57
2018-11-25T19:00:03.955Z,101254.33
2018-11-25T19:02:41.196Z,101256.27
2018-11-25T19:05:09.783Z,101259.55
2018-11-25T19:07:38.278Z,101265.22
2018-11-25T19:10:13.344Z,101262.02
2018-11-25T19:12:44.354Z,101260.66
2018-11-25T19:15:11.661Z,101261.15
2018-11-25T19:17:40.264Z,101255.94
2018-11-25T19:20:14.059Z,101252.42
2018-11-25T19:22:42.747Z,101253.28
2018-11-25T19:25:12.622Z,101252.23
2018-11-25T19:27:41.270Z,101255.78
2018-11-25T19:30:12.160Z,101269.02
2018-11-25T19:32:40.683Z,101272.08
2018-11-25T19:35:10.979Z,101279.05
2018-11-25T19:37:39.537Z,101273.36
2018-11-25T19:40:10.951Z,101273.61
2018-11-25T19:42:39.442Z,101278.25
2018-11-25T19:45:10.512Z,101271.77
2018-11-25T19:47:38.987Z,101275.95
2018-11-25T19:50:11.608Z,101276.70
2018-11-25T19:52:40.087Z,101279.00
2018-11-25T19:55:08.576Z,101275.70
2018-11-25T19:57:37.017Z,101272.88
2018-11-25T20:00:09.729Z,101281.67
2018-11-25T20:02:38.180Z,101276.66
2018-11-25T20:05:07.433Z,101278.24
2018-11-25T20:07:35.875Z,101279.34
2018-11-25T20:10:04.373Z,101283.13
2018-11-25T20:12:38.024Z,101283.41
2018-11-25T20:15:06.717Z,101282.67
2018-11-25T20:17:35.196Z,101283.18
2018-11-25T20:20:04.017Z,101282.86
2018-11-25T20:22:32.468Z,101275.80
2018-11-25T20:25:02.216Z,101269.72
2018-11-25T20:27:34.732Z,101276.58
2018-11-25T20:30:03.236Z,101284.14
2018-11-25T20:32:36.768Z,101279.30
2018-11-25T20:35:05.614Z,101274.66
2018-11-25T20:37:34.085Z,101279.67
2018-11-25T20:40:02.542Z,101276.14
2018-11-25T20:42:30.988Z,101278.58
2018-11-25T20:44:59.448Z,101279.31
2018-11-25T20:47:27.885Z,101277.97
2018-11-25T20:49:56.345Z,101281.62
2018-11-25T20:52:30.162Z,101286.60
2018-11-25T20:54:58.641Z,101287.70
2018-11-25T20:57:27.073Z,101289.44
2018-11-25T20:59:55.543Z,101288.55
2018-11-25T21:02:28.944Z,101283.43
2018-11-25T21:04:52.669Z,101285.41
2018-11-25T21:07:21.111Z,101292.36
2018-11-25T21:09:49.568Z,101285.02
2018-11-25T21:12:18.014Z,101286.72
2018-11-25T21:14:46.498Z,101289.76
2018-11-25T21:17:14.926Z,101293.65
2018-11-25T21:19:43.393Z,101300.93
2018-11-25T21:22:11.829Z,101294.70
2018-11-25T21:24:40.319Z,101303.72
2018-11-25T21:27:08.808Z,101300.53
2018-11-25T21:29:37.284Z,101295.97
2018-11-25T21:32:05.874Z,101294.13
2018-11-25T21:34:34.322Z,101296.42
2018-11-25T21:37:02.791Z,101289.09
2018-11-25T21:39:31.224Z,101299.94
2018-11-25T21:41:59.694Z,101302.14
2018-11-25T21:44:28.144Z,101292.98
2018-11-25T21:46:56.614Z,101300.83
2018-11-25T21:49:25.058Z,101297.66
2018-11-25T21:51:53.566Z,101298.80
2018-11-25T21:54:22.018Z,101292.44
2018-11-25T21:56:50.474Z,101297.59
2018-11-25T21:59:18.921Z,101295.91
2018-11-25T22:01:47.379Z,101282.48
2018-11-25T22:04:15.814Z,101290.93
2018-11-25T22:06:44.275Z,101292.52
2018-11-25T22:09:12.730Z,101299.88
2018-11-25T22:11:41.196Z,101294.99
2018-11-25T22:14:09.651Z,101294.99
2018-11-25T22:16:38.112Z,101290.99
2018-11-25T22:19:06.582Z,101289.55
2018-11-25T22:21:35.054Z,101296.36
2018-11-25T22:24:03.492Z,101296.00
2018-11-25T22:26:31.977Z,101293.95
2018-11-25T22:29:00.407Z,101293.70
2018-11-25T22:31:28.867Z,101292.86
2018-11-25T22:33:57.309Z,101298.83
2018-11-25T22:36:25.803Z,101299.20
2018-11-25T22:38:54.280Z,101300.92
2018-11-25T22:41:22.722Z,101298.84
2018-11-25T22:43:51.222Z,101303.22
2018-11-25T22:46:19.658Z,101301.91
2018-11-25T22:48:48.111Z,101303.25
2018-11-25T22:51:16.548Z,101309.97
2018-11-25T22:53:46.600Z,101312.38
2018-11-25T22:56:15.262Z,101317.86
2018-11-25T22:58:43.738Z,101312.48
2018-11-25T23:01:12.180Z,101309.20
2018-11-25T23:03:40.659Z,101311.73
2018-11-25T23:06:20.443Z,101307.92
2018-11-25T23:08:48.903Z,101305.83
2018-11-25T23:11:17.376Z,101310.96
2018-11-25T23:13:45.823Z,101314.23
2018-11-25T23:16:14.259Z,101314.86
2018-11-25T23:18:42.733Z,101313.88
2018-11-25T23:21:11.170Z,101322.11
2018-11-25T23:23:39.640Z,101318.67
2018-11-25T23:26:08.113Z,101320.86
2018-11-25T23:28:36.731Z,101315.82
2018-11-25T23:31:05.293Z,101313.40
2018-11-25T23:33:33.783Z,101317.28
2018-11-25T23:36:02.248Z,101309.70
2018-11-25T23:38:30.730Z,101302.95
2018-11-25T23:40:59.191Z,101296.88
2018-11-25T23:43:27.663Z,101303.80
2018-11-25T23:45:56.100Z,101308.26
2018-11-25T23:48:24.567Z,101306.78
2018-11-25T23:50:53.014Z,101309.67
2018-11-25T23:53:21.481Z,101302.56
2018-11-25T23:55:49.919Z,101306.02
2018-11-25T23:58:18.391Z,101312.42
